createdAt,value
2023-04-22T00:00:28.850Z,5.30
2023-04-22T00:02:32.511Z,5.17
2023-04-22T00:04:37.257Z,4.50
2023-04-22T00:06:40.989Z,4.47
2023-04-22T00:08:44.577Z,4.53
2023-04-22T00:10:47.956Z,4.67
2023-04-22T00:12:51.546Z,5.20
2023-04-22T00:14:54.868Z,5.27
2023-04-22T00:16:59.703Z,5.93
2023-04-22T00:19:03.132Z,5.50
2023-04-22T00:21:07.465Z,6.80
2023-04-22T00:23:11.524Z,4.20
2023-04-22T00:25:15.138Z,4.67
2023-04-22T00:27:19.116Z,5.50
2023-04-22T00:29:22.651Z,5.30
2023-04-22T00:31:26.210Z,5.17
2023-04-22T00:33:31.142Z,4.60
2023-04-22T00:35:34.536Z,4.57
2023-04-22T00:37:38.570Z,4.50
2023-04-22T00:39:42.400Z,5.60
2023-04-22T00:41:46.987Z,5.23
2023-04-22T00:43:52.397Z,4.23
2023-04-22T00:45:57.752Z,3.87
2023-04-22T00:48:02.294Z,4.60
2023-04-22T00:50:09.174Z,4.40
2023-04-22T00:52:12.506Z,4.47
2023-04-22T00:54:16.074Z,5.80
2023-04-22T00:56:21.576Z,5.77
2023-04-22T00:58:29.631Z,5.00
2023-04-22T01:00:35.568Z,4.60
2023-04-22T01:02:39.777Z,4.80
2023-04-22T01:04:43.619Z,4.00
2023-04-22T01:06:48.439Z,5.23
2023-04-22T01:08:52.258Z,4.40
2023-04-22T01:10:55.958Z,4.53
2023-04-22T01:12:59.301Z,4.03
2023-04-22T01:15:04.661Z,4.10
2023-04-22T01:17:10.160Z,4.57
2023-04-22T01:19:13.639Z,4.73
2023-04-22T01:21:17.060Z,4.07
2023-04-22T01:23:22.697Z,4.40
2023-04-22T01:25:26.422Z,3.90
2023-04-22T01:27:31.343Z,4.57
2023-04-22T01:29:35.026Z,4.00
2023-04-22T01:31:39.773Z,3.80
2023-04-22T01:33:44.267Z,3.47
2023-04-22T01:35:47.763Z,3.67
2023-04-22T01:37:52.429Z,3.77
2023-04-22T01:39:58.916Z,4.50
2023-04-22T01:42:03.606Z,3.70
2023-04-22T01:44:06.992Z,3.80
2023-04-22T01:46:11.119Z,3.50
2023-04-22T01:48:14.628Z,4.00
2023-04-22T01:50:19.591Z,4.77
2023-04-22T01:52:23.032Z,4.00
2023-04-22T01:54:26.714Z,4.00
2023-04-22T01:56:31.461Z,3.37
2023-04-22T01:58:35.731Z,3.50
2023-04-22T02:00:41.326Z,3.30
2023-04-22T02:02:44.911Z,4.10
2023-04-22T02:04:48.343Z,3.50
2023-04-22T02:06:51.790Z,3.53
2023-04-22T02:08:55.405Z,3.30
2023-04-22T02:11:00.747Z,2.83
2023-04-22T02:13:05.867Z,3.67
2023-04-22T02:15:10.636Z,4.03
2023-04-22T02:17:17.824Z,3.40
2023-04-22T02:19:22.699Z,3.80
2023-04-22T02:21:26.180Z,3.13
2023-04-22T02:23:30.167Z,4.40
2023-04-22T02:25:33.552Z,2.97
2023-04-22T02:27:36.904Z,3.93
2023-04-22T02:29:42.047Z,4.30
2023-04-22T02:31:46.028Z,3.30
2023-04-22T02:33:49.715Z,3.30
2023-04-22T02:35:53.432Z,3.13
2023-04-22T02:37:57.384Z,3.67
2023-04-22T02:40:03.517Z,4.10
2023-04-22T02:42:07.781Z,2.80
2023-04-22T02:44:11.148Z,3.87
2023-04-22T02:46:17.109Z,3.17
2023-04-22T02:48:20.520Z,2.60
2023-04-22T02:50:24.023Z,3.00
2023-04-22T02:52:27.397Z,2.63
2023-04-22T02:54:31.079Z,2.80
2023-04-22T02:56:34.515Z,3.40
2023-04-22T02:58:37.967Z,3.97
2023-04-22T03:00:41.414Z,3.43
2023-04-22T03:02:46.271Z,3.07
2023-04-22T03:04:52.157Z,3.57
2023-04-22T03:06:56.118Z,3.03
2023-04-22T03:08:59.585Z,3.10
2023-04-22T03:11:03.119Z,2.70
2023-04-22T03:13:06.559Z,2.83
2023-04-22T03:15:10.866Z,3.33
2023-04-22T03:17:14.461Z,2.80
2023-04-22T03:19:19.289Z,2.97
2023-04-22T03:21:22.691Z,3.00
2023-04-22T03:23:27.225Z,2.90
2023-04-22T03:25:30.746Z,2.83
2023-04-22T03:27:34.625Z,3.60
2023-04-22T03:29:38.461Z,3.00
2023-04-22T03:31:42.813Z,2.80
2023-04-22T03:33:46.502Z,2.63
2023-04-22T03:35:59.471Z,3.23
2023-04-22T03:38:03.010Z,3.60
2023-04-22T03:40:13.046Z,4.30
2023-04-22T03:42:17.080Z,7.60
2023-04-22T03:44:22.639Z,4.73
2023-04-22T03:46:26.157Z,4.27
2023-04-22T03:48:37.284Z,4.00
2023-04-22T03:50:46.479Z,3.80
2023-04-22T03:52:51.582Z,3.40
2023-04-22T03:54:57.474Z,3.47
2023-04-22T03:57:01.574Z,3.57
2023-04-22T03:59:05.504Z,3.57
2023-04-22T04:01:11.275Z,3.30
2023-04-22T04:03:15.935Z,3.07
2023-04-22T04:05:20.858Z,3.30
2023-04-22T04:07:24.399Z,3.80
2023-04-22T04:09:29.495Z,3.40
2023-04-22T04:11:33.227Z,3.87
2023-04-22T04:13:36.811Z,3.40
2023-04-22T04:16:00.121Z,3.63
2023-04-22T04:18:05.585Z,3.80
2023-04-22T04:20:10.906Z,3.80
2023-04-22T04:22:18.741Z,3.27
2023-04-22T04:24:31.706Z,3.70
2023-04-22T04:26:42.320Z,4.30
2023-04-22T04:28:50.742Z,3.63
2023-04-22T04:30:55.692Z,3.53
2023-04-22T04:32:59.818Z,3.73
2023-04-22T04:35:03.429Z,3.17
2023-04-22T04:37:06.814Z,3.20
2023-04-22T04:39:31.339Z,3.57
2023-04-22T04:41:35.602Z,3.40
2023-04-22T04:43:40.614Z,3.50
2023-04-22T04:46:09.997Z,3.50
2023-04-22T04:48:19.886Z,3.00
2023-04-22T04:50:28.857Z,2.97
2023-04-22T04:52:36.011Z,3.17
2023-04-22T04:54:41.230Z,3.30
2023-04-22T04:56:44.914Z,2.73
2023-04-22T04:58:48.276Z,2.93
2023-04-22T05:00:58.585Z,2.70
2023-04-22T05:03:02.821Z,3.23
2023-04-22T05:05:09.862Z,2.70
2023-04-22T05:07:14.805Z,3.13
2023-04-22T05:09:18.385Z,3.77
2023-04-22T05:11:25.608Z,3.53
2023-04-22T05:13:30.508Z,2.90
2023-04-22T05:15:35.324Z,2.73
2023-04-22T05:17:39.068Z,3.43
2023-04-22T05:19:42.683Z,3.23
2023-04-22T05:21:46.016Z,2.83
2023-04-22T05:23:51.167Z,2.77
2023-04-22T05:25:55.862Z,2.60
2023-04-22T05:28:01.967Z,3.40
2023-04-22T05:30:11.782Z,3.37
2023-04-22T05:32:15.498Z,2.97
2023-04-22T05:34:19.034Z,2.60
2023-04-22T05:36:22.488Z,2.43
2023-04-22T05:38:26.033Z,3.13
2023-04-22T05:40:32.118Z,3.17
2023-04-22T05:42:36.344Z,3.13
2023-04-22T05:44:41.120Z,3.10
2023-04-22T05:46:45.500Z,5.67
2023-04-22T05:48:49.764Z,4.27
2023-04-22T05:51:15.936Z,3.60
2023-04-22T05:53:19.441Z,2.87
2023-04-22T05:55:23.303Z,2.97
2023-04-22T05:57:26.919Z,2.50
2023-04-22T05:59:30.415Z,2.70
2023-04-22T06:01:37.512Z,3.40
2023-04-22T06:03:45.036Z,2.43
2023-04-22T06:05:49.529Z,8.73
2023-04-22T06:07:52.892Z,5.00
2023-04-22T06:10:04.045Z,3.87
2023-04-22T06:12:08.912Z,2.90
2023-04-22T06:14:13.165Z,2.33
2023-04-22T06:16:18.378Z,2.70
2023-04-22T06:18:23.182Z,2.33
2023-04-22T06:20:26.723Z,2.57
2023-04-22T06:22:30.851Z,2.60
2023-04-22T06:24:34.165Z,2.67
2023-04-22T06:26:37.891Z,2.43
2023-04-22T06:28:41.638Z,2.73
2023-04-22T06:30:49.687Z,2.47
2023-04-22T06:32:55.068Z,5.67
2023-04-22T06:34:59.871Z,9.47
2023-04-22T06:37:03.505Z,5.20
2023-04-22T06:39:10.290Z,7.57
2023-04-22T06:41:17.461Z,4.43
2023-04-22T06:43:23.204Z,3.33
2023-04-22T06:45:44.815Z,2.40
2023-04-22T06:48:23.381Z,2.60
2023-04-22T06:50:46.774Z,2.43
2023-04-22T06:52:50.431Z,2.70
2023-04-22T06:54:54.357Z,2.83
2023-04-22T06:56:57.742Z,3.23
2023-04-22T06:59:01.162Z,2.93
2023-04-22T07:01:06.425Z,3.80
2023-04-22T07:03:09.969Z,3.13
2023-04-22T07:05:14.145Z,8.13
2023-04-22T07:07:19.762Z,3.93
2023-04-22T07:09:23.148Z,3.40
2023-04-22T07:11:27.686Z,3.50
2023-04-22T07:13:37.800Z,3.70
2023-04-22T07:15:41.487Z,2.80
2023-04-22T07:17:44.906Z,3.40
2023-04-22T07:19:48.251Z,2.87
2023-04-22T07:21:52.174Z,2.90
2023-04-22T07:23:56.859Z,3.00
2023-04-22T07:26:00.265Z,2.57
2023-04-22T07:28:03.680Z,3.70
2023-04-22T07:30:09.198Z,3.00
2023-04-22T07:32:12.601Z,3.37
2023-04-22T07:34:17.359Z,2.90
2023-04-22T07:36:20.938Z,3.27
2023-04-22T07:38:24.360Z,3.27
2023-04-22T07:40:29.081Z,3.30
2023-04-22T07:42:32.794Z,3.30
2023-04-22T07:44:38.191Z,3.13
2023-04-22T07:46:42.745Z,2.80
2023-04-22T07:48:46.295Z,2.97
2023-04-22T07:50:49.681Z,2.80
2023-04-22T07:52:53.087Z,2.13
2023-04-22T07:54:56.499Z,2.50
2023-04-22T07:57:01.589Z,2.20
2023-04-22T07:59:05.179Z,2.70
2023-04-22T08:01:08.575Z,2.20
2023-04-22T08:03:12.311Z,2.40
2023-04-22T08:05:15.820Z,3.97
2023-04-22T08:09:25.499Z,2.80
2023-04-22T08:11:28.950Z,2.80
2023-04-22T08:13:33.627Z,2.53
2023-04-22T08:15:37.231Z,2.30
2023-04-22T08:17:40.660Z,2.20
2023-04-22T08:19:44.063Z,2.33
2023-04-22T08:21:48.333Z,2.00
2023-04-22T08:23:52.053Z,2.10
2023-04-22T08:25:55.465Z,2.60
2023-04-22T08:27:58.992Z,2.53
2023-04-22T08:30:03.790Z,2.30
2023-04-22T08:32:07.753Z,2.27
2023-04-22T08:34:11.371Z,2.47
2023-04-22T08:36:14.889Z,2.37
2023-04-22T08:38:18.326Z,2.20
2023-04-22T08:40:21.907Z,4.57
2023-04-22T08:42:26.340Z,10.40
2023-04-22T08:44:30.678Z,2.77
2023-04-22T08:46:36.008Z,1.90
2023-04-22T08:48:39.925Z,1.80
2023-04-22T08:50:43.453Z,2.10
2023-04-22T08:52:46.921Z,2.23
2023-04-22T08:54:50.503Z,1.80
2023-04-22T08:56:54.984Z,2.20
2023-04-22T08:58:58.903Z,2.30
2023-04-22T09:01:02.738Z,2.10
2023-04-22T09:03:08.075Z,2.90
2023-04-22T09:05:13.089Z,2.00
2023-04-22T09:07:24.981Z,2.03
2023-04-22T09:09:31.754Z,2.30
2023-04-22T09:11:35.696Z,1.73
2023-04-22T09:13:39.145Z,2.20
2023-04-22T09:15:42.538Z,2.40
2023-04-22T09:17:45.909Z,2.10
2023-04-22T09:19:58.244Z,2.35
2023-04-22T09:22:01.590Z,2.23
2023-04-22T09:24:07.715Z,2.30
2023-04-22T09:26:11.012Z,1.80
2023-04-22T09:28:19.050Z,2.20
2023-04-22T09:30:25.676Z,2.13
2023-04-22T09:32:29.073Z,2.33
2023-04-22T09:34:32.671Z,2.20
2023-04-22T09:36:38.254Z,2.43
2023-04-22T09:38:41.691Z,2.30
2023-04-22T09:40:45.575Z,2.20
2023-04-22T09:42:49.725Z,2.30
2023-04-22T09:44:53.510Z,2.13
2023-04-22T09:46:56.943Z,1.80
2023-04-22T09:49:00.857Z,2.30
2023-04-22T09:51:15.913Z,2.30
2023-04-22T09:53:23.740Z,2.10
2023-04-22T09:55:28.864Z,2.43
2023-04-22T09:57:32.190Z,2.60
2023-04-22T09:59:35.511Z,2.13
2023-04-22T10:01:41.027Z,2.50
2023-04-22T10:03:45.007Z,2.10
2023-04-22T10:05:48.606Z,2.73
2023-04-22T10:07:52.855Z,2.27
2023-04-22T10:09:57.905Z,2.20
2023-04-22T10:12:01.381Z,1.80
2023-04-22T10:14:05.391Z,2.30
2023-04-22T10:16:08.954Z,2.07
2023-04-22T10:18:15.024Z,2.23
2023-04-22T10:20:21.039Z,2.60
2023-04-22T10:22:24.854Z,1.83
2023-04-22T10:24:29.596Z,2.43
2023-04-22T10:26:56.254Z,2.37
2023-04-22T10:29:00.326Z,2.07
2023-04-22T10:31:07.682Z,2.60
2023-04-22T10:33:39.801Z,2.17
2023-04-22T10:36:10.142Z,12.53
2023-04-22T10:38:13.457Z,2.40
2023-04-22T10:40:18.066Z,2.53
2023-04-22T10:42:22.945Z,2.30
2023-04-22T10:44:30.129Z,4.57
2023-04-22T10:47:01.978Z,3.30
2023-04-22T10:49:08.118Z,3.83
2023-04-22T10:51:39.698Z,2.67
2023-04-22T10:53:43.855Z,3.77
2023-04-22T10:55:52.018Z,5.90
2023-04-22T10:57:56.690Z,3.20
2023-04-22T11:00:00.406Z,2.60
2023-04-22T11:02:04.642Z,2.60
2023-04-22T11:04:22.523Z,2.60
2023-04-22T11:06:27.903Z,2.43
2023-04-22T11:08:31.385Z,2.67
2023-04-22T11:10:44.963Z,2.50
2023-04-22T11:12:50.922Z,2.40
2023-04-22T11:14:56.279Z,2.77
2023-04-22T11:16:59.752Z,2.10
2023-04-22T11:19:03.874Z,2.70
2023-04-22T11:21:08.726Z,2.47
2023-04-22T11:23:12.308Z,2.40
2023-04-22T11:25:16.084Z,2.70
2023-04-22T11:27:26.026Z,2.10
2023-04-22T11:29:30.537Z,2.80
2023-04-22T11:31:36.511Z,2.50
2023-04-22T11:33:40.021Z,2.30
2023-04-22T11:35:43.686Z,2.70
2023-04-22T11:37:48.973Z,2.73
2023-04-22T11:40:13.792Z,2.40
2023-04-22T11:42:16.619Z,2.43
2023-04-22T11:44:25.647Z,2.00
2023-04-22T11:46:30.097Z,3.53
2023-04-22T11:48:35.204Z,7.57
2023-04-22T11:50:44.150Z,4.70
2023-04-22T11:52:49.917Z,4.03
2023-04-22T11:54:53.504Z,4.43
2023-04-22T11:56:57.235Z,2.27
2023-04-22T11:59:00.743Z,3.07
2023-04-22T12:01:04.089Z,2.77
2023-04-22T12:03:15.253Z,2.50
2023-04-22T12:05:20.555Z,2.80
2023-04-22T12:07:25.489Z,2.80
2023-04-22T12:09:28.891Z,2.90
2023-04-22T12:11:32.348Z,2.80
2023-04-22T12:13:45.513Z,4.13
2023-04-22T12:15:49.222Z,3.00
2023-04-22T12:17:52.857Z,2.70
2023-04-22T12:19:57.106Z,3.10
2023-04-22T12:22:02.134Z,2.90
2023-04-22T12:24:11.417Z,3.00
2023-04-22T12:26:15.756Z,3.70
2023-04-22T12:28:19.744Z,2.40
2023-04-22T12:30:23.650Z,2.80
2023-04-22T12:32:28.020Z,2.60
2023-04-22T12:34:31.407Z,3.20
2023-04-22T12:36:34.820Z,2.90
2023-04-22T12:38:40.128Z,2.80
2023-04-22T12:40:43.446Z,2.43
2023-04-22T12:42:46.759Z,2.80
2023-04-22T12:44:50.628Z,2.90
2023-04-22T12:46:54.203Z,3.10
2023-04-22T12:48:57.906Z,3.47
2023-04-22T12:51:01.362Z,3.03
2023-04-22T12:53:05.132Z,2.53
2023-04-22T12:55:10.391Z,2.97
2023-04-22T12:57:13.840Z,3.27
2023-04-22T12:59:17.316Z,2.33
2023-04-22T13:01:20.723Z,2.30
2023-04-22T13:03:24.402Z,2.83
2023-04-22T13:05:27.791Z,2.47
2023-04-22T13:07:31.407Z,2.40
2023-04-22T13:09:34.733Z,2.17
2023-04-22T13:11:39.477Z,2.10
2023-04-22T13:13:42.914Z,2.20
2023-04-22T13:15:46.994Z,2.13
2023-04-22T13:17:51.523Z,2.13
2023-04-22T13:19:55.074Z,1.93
2023-04-22T13:21:58.395Z,1.70
2023-04-22T13:24:01.673Z,2.33
2023-04-22T13:26:05.152Z,2.20
2023-04-22T13:28:11.298Z,2.27
2023-04-22T13:30:15.496Z,2.10
2023-04-22T13:32:19.030Z,2.73
2023-04-22T13:34:22.396Z,2.30
2023-04-22T13:36:26.202Z,1.93
2023-04-22T13:38:29.498Z,2.03
2023-04-22T13:40:32.800Z,2.40
2023-04-22T13:42:36.431Z,2.20
2023-04-22T13:44:41.290Z,2.67
2023-04-22T13:46:45.027Z,2.23
2023-04-22T13:48:48.621Z,2.47
2023-04-22T13:50:52.020Z,2.10
2023-04-22T13:52:55.367Z,2.23
2023-04-22T13:54:58.674Z,2.00
2023-04-22T13:57:03.283Z,2.27
2023-04-22T13:59:06.582Z,2.03
2023-04-22T14:01:11.374Z,2.40
2023-04-22T14:03:14.942Z,2.17
2023-04-22T14:05:18.438Z,2.40
2023-04-22T14:07:21.779Z,3.80
2023-04-22T14:09:25.105Z,2.90
2023-04-22T14:11:28.466Z,2.20
2023-04-22T14:13:32.282Z,2.00
2023-04-22T14:15:36.115Z,2.47
2023-04-22T14:17:40.913Z,2.73
2023-04-22T14:19:44.903Z,2.70
2023-04-22T14:21:48.422Z,2.40
2023-04-22T14:23:51.737Z,2.50
2023-04-22T14:25:55.790Z,2.63
2023-04-22T14:27:59.560Z,3.07
2023-04-22T14:30:04.318Z,3.17
2023-04-22T14:32:07.730Z,9.80
2023-04-22T14:34:12.671Z,10.57
2023-04-22T14:36:16.070Z,7.90
2023-04-22T14:38:19.804Z,3.50
2023-04-22T14:40:27.666Z,2.67
2023-04-22T14:42:31.387Z,2.33
2023-04-22T14:44:34.786Z,2.50
2023-04-22T14:46:38.215Z,2.60
2023-04-22T14:48:42.574Z,5.77
2023-04-22T14:50:47.244Z,2.90
2023-04-22T14:52:51.454Z,2.20
2023-04-22T14:54:54.896Z,2.50
2023-04-22T14:56:58.639Z,2.87
2023-04-22T14:59:02.096Z,2.93
2023-04-22T15:01:07.361Z,5.27
2023-04-22T15:03:11.212Z,3.67
2023-04-22T15:05:14.594Z,2.63
2023-04-22T15:07:19.580Z,2.83
2023-04-22T15:09:22.921Z,2.30
2023-04-22T15:11:26.246Z,2.33
2023-04-22T15:13:29.639Z,2.63
2023-04-22T15:15:33.101Z,2.57
2023-04-22T15:17:37.091Z,2.53
2023-04-22T15:19:40.668Z,2.60
2023-04-22T15:21:44.273Z,2.20
2023-04-22T15:23:49.119Z,1.60
2023-04-22T15:25:52.610Z,1.80
2023-04-22T15:27:57.027Z,3.03
2023-04-22T15:30:00.509Z,11.17
2023-04-22T15:32:04.024Z,4.10
2023-04-22T15:34:07.781Z,2.53
2023-04-22T15:36:11.250Z,2.20
2023-04-22T15:38:14.649Z,2.57
2023-04-22T15:40:19.548Z,2.30
2023-04-22T15:42:22.923Z,2.43
2023-04-22T15:44:26.536Z,1.90
2023-04-22T15:46:33.323Z,1.97
2023-04-22T15:48:36.764Z,1.90
2023-04-22T15:50:40.764Z,1.53
2023-04-22T15:52:44.284Z,1.47
2023-04-22T15:54:48.448Z,2.10
2023-04-22T15:56:53.120Z,1.90
2023-04-22T15:58:56.500Z,11.90
2023-04-22T16:01:11.548Z,2.77
2023-04-22T16:03:21.276Z,1.93
2023-04-22T16:05:25.396Z,2.77
2023-04-22T16:07:28.851Z,2.40
2023-04-22T16:09:32.261Z,1.73
2023-04-22T16:11:35.667Z,1.70
2023-04-22T16:13:40.384Z,1.23
2023-04-22T16:15:43.838Z,1.73
2023-04-22T16:17:47.187Z,1.50
2023-04-22T16:19:50.693Z,1.90
2023-04-22T16:21:54.028Z,2.00
2023-04-22T16:23:58.605Z,1.70
2023-04-22T16:26:04.398Z,1.57
2023-04-22T16:28:08.223Z,1.70
2023-04-22T16:30:16.117Z,1.60
2023-04-22T16:32:19.748Z,1.50
2023-04-22T16:34:23.088Z,1.80
2023-04-22T16:36:26.446Z,1.60
2023-04-22T16:38:29.863Z,1.93
2023-04-22T16:40:33.222Z,1.53
2023-04-22T16:42:36.903Z,1.43
2023-04-22T16:44:40.185Z,1.73
2023-04-22T16:46:44.992Z,1.53
2023-04-22T16:48:48.479Z,1.50
2023-04-22T16:50:52.671Z,1.60
2023-04-22T16:52:55.995Z,1.40
2023-04-22T16:55:00.374Z,1.90
2023-04-22T16:57:04.779Z,1.43
2023-04-22T16:59:08.122Z,1.63
2023-04-22T17:01:11.462Z,1.93
2023-04-22T17:03:16.481Z,2.50
2023-04-22T17:05:20.052Z,2.10
2023-04-22T17:07:23.398Z,1.83
2023-04-22T17:09:26.767Z,2.27
2023-04-22T17:11:32.254Z,2.57
2023-04-22T17:13:35.893Z,2.73
2023-04-22T17:15:39.412Z,2.47
2023-04-22T17:17:42.991Z,2.50
2023-04-22T17:19:47.698Z,2.20
2023-04-22T17:21:51.397Z,3.07
2023-04-22T17:23:54.818Z,2.47
2023-04-22T17:25:58.563Z,2.63
2023-04-22T17:28:02.229Z,2.37
2023-04-22T17:30:06.427Z,2.60
2023-04-22T17:32:09.840Z,2.40
2023-04-22T17:34:13.187Z,2.43
2023-04-22T17:36:19.982Z,2.57
2023-04-22T17:38:23.506Z,2.63
2023-04-22T17:40:26.951Z,3.80
2023-04-22T17:42:44.660Z,2.90
2023-04-22T17:44:49.824Z,2.70
2023-04-22T17:46:53.217Z,2.77
2023-04-22T17:48:56.784Z,2.90
2023-04-22T17:51:01.414Z,3.23
2023-04-22T17:53:06.411Z,3.50
2023-04-22T17:55:10.975Z,2.90
2023-04-22T17:57:14.716Z,2.67
2023-04-22T17:59:18.746Z,8.00
2023-04-22T18:01:22.214Z,3.60
2023-04-22T18:03:26.263Z,3.80
2023-04-22T18:05:29.859Z,2.93
2023-04-22T18:07:33.186Z,3.23
2023-04-22T18:09:37.938Z,3.47
2023-04-22T18:11:41.355Z,2.77
2023-04-22T18:13:44.781Z,3.00
2023-04-22T18:15:48.184Z,14.07
2023-04-22T18:17:51.788Z,7.30
2023-04-22T18:20:02.716Z,7.47
2023-04-22T18:22:13.568Z,6.77
2023-04-22T18:24:17.089Z,12.20
2023-04-22T18:26:22.267Z,7.47
2023-04-22T18:28:25.649Z,5.97
2023-04-22T18:30:30.826Z,4.30
2023-04-22T18:32:35.195Z,5.13
2023-04-22T18:34:39.088Z,4.07
2023-04-22T18:36:42.743Z,3.53
2023-04-22T18:38:46.108Z,3.83
2023-04-22T18:40:49.483Z,3.80
2023-04-22T18:42:54.150Z,3.37
2023-04-22T18:44:57.649Z,3.23
2023-04-22T18:47:00.964Z,2.83
2023-04-22T18:49:04.633Z,2.97
2023-04-22T18:51:08.030Z,3.43
2023-04-22T18:53:11.492Z,3.13
2023-04-22T18:55:14.905Z,3.43
2023-04-22T18:57:18.342Z,3.47
2023-04-22T18:59:23.020Z,3.40
2023-04-22T19:01:26.479Z,4.43
2023-04-22T19:03:30.004Z,3.00
2023-04-22T19:05:33.544Z,3.03
2023-04-22T19:07:37.254Z,3.90
2023-04-22T19:09:40.913Z,4.30
2023-04-22T19:11:44.349Z,3.53
2023-04-22T19:13:47.725Z,4.50
2023-04-22T19:15:52.675Z,4.03
2023-04-22T19:17:56.025Z,4.00
2023-04-22T19:19:59.361Z,3.73
2023-04-22T19:22:02.829Z,5.03
2023-04-22T19:24:07.046Z,5.10
2023-04-22T19:26:10.517Z,3.67
2023-04-22T19:28:13.918Z,3.90
2023-04-22T19:30:17.497Z,3.40
2023-04-22T19:32:22.503Z,3.33
2023-04-22T19:34:26.956Z,3.17
2023-04-22T19:36:31.658Z,3.90
2023-04-22T19:38:35.115Z,3.53
2023-04-22T19:40:38.644Z,3.20
2023-04-22T19:42:42.024Z,3.77
2023-04-22T19:44:46.689Z,3.60
2023-04-22T19:46:50.717Z,3.27
2023-04-22T19:48:56.560Z,2.87
2023-04-22T19:51:01.356Z,3.70
2023-04-22T19:53:06.256Z,3.87
2023-04-22T19:55:12.393Z,4.20
2023-04-22T19:57:16.160Z,4.57
2023-04-22T19:59:19.966Z,4.70
2023-04-22T20:01:23.888Z,4.47
2023-04-22T20:03:28.164Z,4.40
2023-04-22T20:05:33.698Z,4.33
2023-04-22T20:07:38.218Z,4.70
2023-04-22T20:09:43.486Z,6.23
2023-04-22T20:11:47.592Z,6.23
2023-04-22T20:13:51.514Z,5.70
2023-04-22T20:15:55.160Z,5.87
2023-04-22T20:17:58.901Z,6.90
2023-04-22T20:20:05.708Z,7.10
2023-04-22T20:22:13.007Z,8.37
2023-04-22T20:24:20.029Z,7.20
2023-04-22T20:26:24.421Z,7.40
2023-04-22T20:28:43.390Z,6.77
2023-04-22T20:30:47.188Z,7.03
2023-04-22T20:32:51.597Z,7.70
2023-04-22T20:34:55.532Z,8.70
2023-04-22T20:37:02.122Z,8.73
2023-04-22T20:39:08.710Z,7.53
2023-04-22T20:41:13.338Z,8.53
2023-04-22T20:43:16.690Z,8.20
2023-04-22T20:45:20.331Z,9.27
2023-04-22T20:47:23.903Z,9.50
2023-04-22T20:49:27.598Z,9.03
2023-04-22T20:51:31.804Z,8.63
2023-04-22T20:53:35.445Z,9.23
2023-04-22T20:55:40.434Z,7.50
2023-04-22T20:57:43.892Z,10.00
2023-04-22T20:59:47.439Z,8.67
2023-04-22T21:01:51.625Z,8.30
2023-04-22T21:03:59.538Z,8.93
2023-04-22T21:06:03.507Z,8.93
2023-04-22T21:08:16.100Z,8.33
2023-04-22T21:10:20.644Z,8.40
2023-04-22T21:12:26.343Z,7.70
2023-04-22T21:14:30.256Z,8.47
2023-04-22T21:16:37.156Z,9.00
2023-04-22T21:18:44.191Z,8.77
2023-04-22T21:20:51.514Z,10.03
2023-04-22T21:22:55.564Z,8.77
2023-04-22T21:24:59.887Z,9.70
2023-04-22T21:27:03.761Z,9.23
2023-04-22T21:29:09.069Z,8.77
2023-04-22T21:31:13.489Z,10.23
2023-04-22T21:33:16.929Z,9.83
2023-04-22T21:35:21.819Z,9.30
2023-04-22T21:37:26.626Z,9.40
2023-04-22T21:39:30.520Z,8.83
2023-04-22T21:41:33.924Z,9.33
2023-04-22T21:43:37.212Z,8.33
2023-04-22T21:45:42.010Z,10.70
2023-04-22T21:47:45.629Z,11.20
2023-04-22T21:49:49.184Z,8.70
2023-04-22T21:51:52.797Z,9.37
2023-04-22T21:53:56.154Z,9.13
2023-04-22T21:55:59.578Z,9.33
2023-04-22T21:58:02.942Z,9.20
2023-04-22T22:00:15.045Z,9.97
2023-04-22T22:02:21.295Z,9.50
2023-04-22T22:04:25.055Z,10.43
2023-04-22T22:06:28.652Z,8.90
2023-04-22T22:08:32.658Z,8.90
2023-04-22T22:10:36.170Z,9.30
2023-04-22T22:12:39.733Z,10.10
2023-04-22T22:14:44.340Z,7.47
2023-04-22T22:16:49.829Z,9.60
2023-04-22T22:18:55.727Z,11.67
2023-04-22T22:20:59.616Z,9.50
2023-04-22T22:23:02.981Z,8.77
2023-04-22T22:25:08.150Z,9.00
2023-04-22T22:27:11.503Z,9.93
2023-04-22T22:29:15.561Z,9.50
2023-04-22T22:31:19.693Z,9.00
2023-04-22T22:33:23.002Z,10.13
2023-04-22T22:35:27.888Z,9.33
2023-04-22T22:37:31.315Z,8.40
2023-04-22T22:39:34.602Z,10.10
2023-04-22T22:41:37.886Z,13.87
2023-04-22T22:43:41.281Z,9.10
2023-04-22T22:45:44.624Z,10.60
2023-04-22T22:47:48.092Z,8.50
2023-04-22T22:49:51.867Z,10.90
2023-04-22T22:51:56.695Z,9.13
2023-04-22T22:54:00.169Z,8.73
2023-04-22T22:56:03.800Z,7.40
2023-04-22T22:58:07.238Z,7.93
2023-04-22T23:00:12.612Z,7.30
2023-04-22T23:02:16.165Z,8.60
2023-04-22T23:04:19.852Z,8.27
2023-04-22T23:06:23.295Z,8.20
2023-04-22T23:08:27.952Z,9.77
2023-04-22T23:10:31.510Z,7.00
2023-04-22T23:12:35.357Z,7.43
2023-04-22T23:14:39.135Z,7.30
2023-04-22T23:16:42.834Z,8.87
2023-04-22T23:18:46.993Z,8.03
2023-04-22T23:20:51.931Z,7.57
2023-04-22T23:22:55.683Z,9.70
2023-04-22T23:25:01.170Z,7.90
2023-04-22T23:27:05.496Z,8.10
2023-04-22T23:29:09.454Z,7.10
2023-04-22T23:31:18.274Z,7.90
2023-04-22T23:33:25.643Z,7.30
2023-04-22T23:35:29.456Z,7.70
2023-04-22T23:37:33.876Z,7.10
2023-04-22T23:39:37.273Z,7.43
2023-04-22T23:41:41.991Z,7.50
2023-04-22T23:43:45.334Z,7.40
2023-04-22T23:45:48.817Z,6.70
2023-04-22T23:47:52.289Z,6.47
2023-04-22T23:49:55.748Z,8.80
2023-04-22T23:51:59.508Z,8.67
2023-04-22T23:54:02.827Z,8.33
2023-04-22T23:56:06.990Z,8.23
2023-04-22T23:58:12.075Z,8.13
